Hauptseite
METAR-TAF:

METAR-TAF

Flughäfen :

Flughafen Stockholm-Skavsta

Stockholm-Skavsta, Schweden

Breite: 58-47N, Länge: 016-55E, Höhe: 43 m

Beobachtung

Neuester Wetterbericht von vor 44 Minuten, um 09:20 UTC
Wind 10 kt aus Südwest, variierte zwischen Süd und West/Südwest
Temperatur 20°C
Luftfeuchtigkeit 53%
Luftdruck 1011 hPa
Sichtweite 10 km oder mehr
Aufgelockert bewölkt in der Höhe von 3900 ft

METAR: ESKN 180920Z 22010KT 190V250 9999 SCT039 20/10 Q1011

Zeit: 12:04 (10:04 UTC)

Prognose

Neuester Wetterbericht von vor 1 Stunde und 34 Minuten, um 08:30 UTC
Gültige Prognose vom 18 um 09 UTC bis 19 um 09 UTC
Wind 8 kt aus Süd
Sichtweite 10 km oder mehr
Aufgelockert bewölkt in der Höhe von 3500 ft
Wahrscheinlichkeit 40% :
Zeitweise
vom 18 um 10 UTC bis 18 um 14 UTC
Aufgelockert bewölkt in der Höhe von 5000 ft, Kumulonimbus.

TAF: ESKN 180830Z 1809/1909 19008KT 9999 SCT035 PROB40 TEMPO 1810/1814 SCT050CB

Wetterbeobachtungen und Prognosen von mehr als 4000 Flughäfen (METAR und TAF Bericht).

Die verfügbaren Stationen werden durch gelbe und rote Markierungen auf der Karte dargestellt.

Führen Sie die Maus auf sie, um den Namen der Station zu sehen.

Darauf klicken, um die Beobachtung von Wetterbeobachtungen und Prognosen zu sehen.

Um die Karte zu ändern : klicken Sie auf den grünen Tasten mit einem schwarzen Kreuz Zum Vergrößern, auf den grünen Button mit einem Gedankenstrich zu verkleinern, oder auf die grünen Pfeile für benachbarte Karten.


METAR-TAF: